Portada
METAR-TAF:

METAR-TAF

Aeropuertos :

Cuneo, Italia

latitud: 44-32-47N, longitud: 007-37-20E, altitud: 386 m

Observación

El informe se hizo hace 48 minutos, a las 07:50 UTC
Viento 4 kt del sur-sureste
Temperatura 5°C
Humedad 93%
Presión 1025 hPa
Visibilidad: 9000 m

METAR: LIMZ 070750Z AUTO 16004KT 9000 FEW032/// 05/04 Q1025

Hora: 09:38 (08:38 UTC)

Pronóstico

El informe se hizo hace 2 horas y 34 minutos, a las 06:04 UTC
Pronóstico válido del 07 a las 06 UTC al 08 a las 06 UTC
Viento 4 kt con dirección variable
Visibilidad: 4000 m
Cielo nuboso a una altura de 4000 ft
neblina
Temporalmente
del 07 a las 06 UTC al 07 a las 08 UTC
Visibilidad: 1200 m
niebla en bancos
Evolucionando progresivamente
del 07 a las 08 UTC al 07 a las 10 UTC
Visibilidad: 7000 m

TAF: LIMZ 070604Z 0706/0806 VRB04KT 4000 BR BKN040 TEMPO 0706/0708 1200 BCFG BECMG 0708/0710 7000

Observaciones y pronósticos meteorológicos de más de 4000 aeropuertos (mensajes METAR y TAF).

Los puntos amarillos y rojos representan las estaciones disponibles.

Ponga el ratón en el punto deseado para ver el nombre de la estación.

Haga clic para ver las observaciones y los pronósticos meteorológicos.

Para cambiar el mapa : haga clic en los botones verdes con una cruz de color negro para hacer un zoom, en el botón verde con un guión para alejar o en las flechas verdes para mapas adyacentes.


METAR-TAF: